DAL914 KDTW-KBOS
Flight info
| Callsign | DAL914 |
|---|---|
| Flight time | 1h 28m |
| Altitude | 35000 |
| Route | HHOWE4 LNCON JHW Q82 PONCT JFUND2 |
| Aircraft | A21N/M-SDE2E3FGHIRWXY/LB1 |
Departure
| Time | 2026-05-06 18:12 |
|---|---|
| Airport | Detroit Metropolitan Wayne County Airport (KDTW) |
Arrival
| Time | 2026-05-06 19:40 |
|---|---|
| Airport | Boston Logan International Airport (KBOS) |
| Time | Latitude | Longitude | Altitude | Speed | Heading |
|---|---|---|---|---|---|
| 2026-05-06 17:47 | 42.21263 | -83.35548 | 642 ft | 0 kts | 118° |
| 2026-05-06 18:00 | 42.21268 | -83.35561 | 642 ft | 2 kts | 118° |
| 2026-05-06 18:00 | 42.21275 | -83.35578 | 642 ft | 2 kts | 118° |
| 2026-05-06 18:01 | 42.21282 | -83.35595 | 642 ft | 2 kts | 118° |
| 2026-05-06 18:01 | 42.21286 | -83.35606 | 642 ft | 2 kts | 118° |
| 2026-05-06 18:01 | 42.21291 | -83.35625 | 642 ft | 2 kts | 90° |
| 2026-05-06 18:01 | 42.21288 | -83.35644 | 642 ft | 2 kts | 70° |
| 2026-05-06 18:02 | 42.21281 | -83.35662 | 642 ft | 2 kts | 48° |
| 2026-05-06 18:02 | 42.21272 | -83.35673 | 642 ft | 0 kts | 31° |
| 2026-05-06 18:02 | 42.21266 | -83.35677 | 642 ft | 0 kts | 27° |
| 2026-05-06 18:02 | 42.21265 | -83.35677 | 642 ft | 0 kts | 27° |
| 2026-05-06 18:06 | 42.21267 | -83.35677 | 642 ft | 0 kts | 27° |
| 2026-05-06 18:06 | 42.21276 | -83.35670 | 642 ft | 2 kts | 28° |
| 2026-05-06 18:06 | 42.21294 | -83.35657 | 642 ft | 3 kts | 29° |
| 2026-05-06 18:06 | 42.21320 | -83.35637 | 642 ft | 4 kts | 30° |
| 2026-05-06 18:07 | 42.21354 | -83.35612 | 642 ft | 6 kts | 29° |
| 2026-05-06 18:07 | 42.21395 | -83.35580 | 642 ft | 7 kts | 29° |
| 2026-05-06 18:07 | 42.21445 | -83.35544 | 642 ft | 8 kts | 29° |
| 2026-05-06 18:07 | 42.21504 | -83.35507 | 642 ft | 9 kts | 21° |
| 2026-05-06 18:08 | 42.21547 | -83.35432 | 640 ft | 12 kts | 83° |
| 2026-05-06 18:08 | 42.21549 | -83.35307 | 638 ft | 14 kts | 90° |
| 2026-05-06 18:08 | 42.21551 | -83.35170 | 638 ft | 14 kts | 99° |
| 2026-05-06 18:08 | 42.21482 | -83.35070 | 638 ft | 15 kts | 148° |
| 2026-05-06 18:09 | 42.21391 | -83.34998 | 638 ft | 15 kts | 149° |
| 2026-05-06 18:09 | 42.21294 | -83.34933 | 638 ft | 15 kts | 178° |
| 2026-05-06 18:09 | 42.21193 | -83.34991 | 638 ft | 16 kts | 212° |
| 2026-05-06 18:09 | 42.21100 | -83.35061 | 638 ft | 12 kts | 208° |
| 2026-05-06 18:10 | 42.21026 | -83.35115 | 638 ft | 12 kts | 208° |
| 2026-05-06 18:10 | 42.20956 | -83.35165 | 638 ft | 11 kts | 208° |
| 2026-05-06 18:10 | 42.20886 | -83.35214 | 638 ft | 11 kts | 198° |
| 2026-05-06 18:10 | 42.20827 | -83.35194 | 638 ft | 12 kts | 129° |
| 2026-05-06 18:11 | 42.20844 | -83.35084 | 637 ft | 16 kts | 40° |
| 2026-05-06 18:11 | 42.20941 | -83.35010 | 637 ft | 42 kts | 27° |
| 2026-05-06 18:11 | 42.21662 | -83.34470 | 639 ft | 131 kts | 28° |
| 2026-05-06 18:11 | 42.22633 | -83.33758 | 648 ft | 182 kts | 28° |
| 2026-05-06 18:12 | 42.23768 | -83.32932 | 1179 ft | 187 kts | 29° |
| 2026-05-06 18:12 | 42.24853 | -83.31962 | 1798 ft | 193 kts | 40° |
| 2026-05-06 18:12 | 42.25804 | -83.30683 | 2451 ft | 197 kts | 51° |
| 2026-05-06 18:12 | 42.26607 | -83.29194 | 2948 ft | 200 kts | 56° |
| 2026-05-06 18:13 | 42.27419 | -83.27615 | 3219 ft | 214 kts | 54° |
| 2026-05-06 18:13 | 42.28344 | -83.25948 | 3455 ft | 232 kts | 52° |
| 2026-05-06 18:13 | 42.29395 | -83.24175 | 3738 ft | 250 kts | 51° |
| 2026-05-06 18:13 | 42.30545 | -83.22302 | 4146 ft | 263 kts | 50° |
| 2026-05-06 18:14 | 42.31715 | -83.20425 | 4858 ft | 263 kts | 50° |
| 2026-05-06 18:14 | 42.32810 | -83.18478 | 5517 ft | 265 kts | 64° |
| 2026-05-06 18:14 | 42.33229 | -83.16084 | 6123 ft | 267 kts | 94° |
| 2026-05-06 18:14 | 42.32951 | -83.13607 | 6658 ft | 270 kts | 102° |
| 2026-05-06 18:15 | 42.32560 | -83.11115 | 6882 ft | 270 kts | 102° |
| 2026-05-06 18:15 | 42.32167 | -83.08632 | 6890 ft | 270 kts | 102° |
| 2026-05-06 18:15 | 42.31790 | -83.06159 | 6896 ft | 270 kts | 102° |
| 2026-05-06 18:15 | 42.31420 | -83.03676 | 6899 ft | 270 kts | 101° |
| 2026-05-06 18:16 | 42.31057 | -83.01202 | 6900 ft | 270 kts | 101° |
| 2026-05-06 18:16 | 42.30689 | -82.98710 | 6905 ft | 271 kts | 102° |
| 2026-05-06 18:16 | 42.30276 | -82.96185 | 7201 ft | 278 kts | 103° |
| 2026-05-06 18:16 | 42.29848 | -82.93668 | 7953 ft | 276 kts | 103° |
| 2026-05-06 18:17 | 42.29424 | -82.91177 | 8528 ft | 277 kts | 103° |
| 2026-05-06 18:17 | 42.28991 | -82.88618 | 8848 ft | 279 kts | 103° |
| 2026-05-06 18:17 | 42.28559 | -82.86058 | 9329 ft | 284 kts | 103° |
| 2026-05-06 18:17 | 42.28122 | -82.83471 | 10012 ft | 283 kts | 103° |
| 2026-05-06 18:18 | 42.27679 | -82.80851 | 10369 ft | 295 kts | 103° |
| 2026-05-06 18:18 | 42.27210 | -82.78077 | 10632 ft | 309 kts | 103° |
| 2026-05-06 18:18 | 42.26719 | -82.75182 | 10888 ft | 323 kts | 103° |
| 2026-05-06 18:18 | 42.26210 | -82.72180 | 11133 ft | 337 kts | 103° |
| 2026-05-06 18:19 | 42.25675 | -82.69029 | 11377 ft | 350 kts | 103° |
| 2026-05-06 18:19 | 42.25233 | -82.65756 | 11767 ft | 357 kts | 97° |
| 2026-05-06 18:19 | 42.25068 | -82.62430 | 12312 ft | 360 kts | 90° |
| 2026-05-06 18:19 | 42.25143 | -82.59077 | 12853 ft | 362 kts | 86° |
| 2026-05-06 18:20 | 42.25288 | -82.55665 | 13371 ft | 364 kts | 86° |
| 2026-05-06 18:20 | 42.25438 | -82.52261 | 13866 ft | 367 kts | 86° |
| 2026-05-06 18:20 | 42.25584 | -82.48810 | 14357 ft | 370 kts | 86° |
| 2026-05-06 18:20 | 42.25653 | -82.45308 | 14841 ft | 372 kts | 90° |
| 2026-05-06 18:21 | 42.25631 | -82.41807 | 15313 ft | 375 kts | 90° |
| 2026-05-06 18:21 | 42.25594 | -82.38290 | 15770 ft | 378 kts | 90° |
| 2026-05-06 18:21 | 42.25555 | -82.34780 | 16213 ft | 380 kts | 91° |
| 2026-05-06 18:21 | 42.25515 | -82.31196 | 16653 ft | 383 kts | 91° |
| 2026-05-06 18:22 | 42.25474 | -82.27569 | 17086 ft | 385 kts | 91° |
| 2026-05-06 18:22 | 42.25434 | -82.23991 | 17499 ft | 387 kts | 91° |
| 2026-05-06 18:22 | 42.25391 | -82.20319 | 17912 ft | 390 kts | 91° |
| 2026-05-06 18:22 | 42.25349 | -82.16688 | 18307 ft | 392 kts | 91° |
| 2026-05-06 18:23 | 42.25304 | -82.13013 | 18696 ft | 394 kts | 91° |
| 2026-05-06 18:23 | 42.25258 | -82.09300 | 19077 ft | 397 kts | 91° |
| 2026-05-06 18:23 | 42.25211 | -82.05566 | 19449 ft | 399 kts | 91° |
| 2026-05-06 18:23 | 42.25162 | -82.01837 | 19811 ft | 401 kts | 91° |
| 2026-05-06 18:24 | 42.25112 | -81.98059 | 20169 ft | 403 kts | 91° |
| 2026-05-06 18:24 | 42.25060 | -81.94273 | 20518 ft | 405 kts | 91° |
| 2026-05-06 18:24 | 42.25007 | -81.90459 | 20863 ft | 407 kts | 91° |
| 2026-05-06 18:24 | 42.24953 | -81.86678 | 21193 ft | 409 kts | 91° |
| 2026-05-06 18:25 | 42.24896 | -81.82825 | 21519 ft | 411 kts | 91° |
| 2026-05-06 18:25 | 42.24838 | -81.78937 | 21840 ft | 413 kts | 91° |
| 2026-05-06 18:25 | 42.24779 | -81.75073 | 22150 ft | 415 kts | 91° |
| 2026-05-06 18:25 | 42.24718 | -81.71201 | 22453 ft | 417 kts | 91° |
| 2026-05-06 18:26 | 42.24655 | -81.67267 | 22752 ft | 419 kts | 91° |
| 2026-05-06 18:26 | 42.24589 | -81.63324 | 23043 ft | 421 kts | 91° |
| 2026-05-06 18:26 | 42.24524 | -81.59399 | 23325 ft | 423 kts | 91° |
| 2026-05-06 18:26 | 42.24455 | -81.55450 | 23603 ft | 424 kts | 91° |
| 2026-05-06 18:27 | 42.24387 | -81.51475 | 23874 ft | 426 kts | 91° |
| 2026-05-06 18:27 | 42.24330 | -81.47447 | 24143 ft | 428 kts | 90° |
| 2026-05-06 18:27 | 42.24280 | -81.43466 | 24402 ft | 430 kts | 90° |
| 2026-05-06 18:27 | 42.24229 | -81.39416 | 24659 ft | 431 kts | 90° |
| 2026-05-06 18:28 | 42.24176 | -81.35395 | 24908 ft | 433 kts | 90° |
| 2026-05-06 18:28 | 42.24120 | -81.31298 | 25156 ft | 434 kts | 91° |
| 2026-05-06 18:28 | 42.24062 | -81.27220 | 25397 ft | 436 kts | 91° |
| 2026-05-06 18:28 | 42.24002 | -81.23155 | 25627 ft | 438 kts | 91° |
| 2026-05-06 18:29 | 42.23940 | -81.19048 | 25856 ft | 439 kts | 91° |
| 2026-05-06 18:29 | 42.23875 | -81.14890 | 26082 ft | 441 kts | 91° |
| 2026-05-06 18:29 | 42.23810 | -81.10783 | 26300 ft | 442 kts | 91° |
| 2026-05-06 18:29 | 42.23743 | -81.06654 | 26512 ft | 444 kts | 91° |
| 2026-05-06 18:30 | 42.23673 | -81.02464 | 26722 ft | 445 kts | 91° |
| 2026-05-06 18:30 | 42.23602 | -80.98302 | 26925 ft | 446 kts | 91° |
| 2026-05-06 18:30 | 42.23529 | -80.94109 | 27125 ft | 448 kts | 91° |
| 2026-05-06 18:30 | 42.23455 | -80.89946 | 27318 ft | 449 kts | 91° |
| 2026-05-06 18:31 | 42.23378 | -80.85724 | 27511 ft | 450 kts | 91° |
| 2026-05-06 18:31 | 42.23301 | -80.81528 | 27701 ft | 452 kts | 91° |
| 2026-05-06 18:31 | 42.23221 | -80.77291 | 27888 ft | 453 kts | 91° |
| 2026-05-06 18:31 | 42.23138 | -80.72995 | 28076 ft | 454 kts | 91° |
| 2026-05-06 18:32 | 42.23054 | -80.68735 | 28260 ft | 456 kts | 91° |
| 2026-05-06 18:32 | 42.22970 | -80.64491 | 28439 ft | 457 kts | 91° |
| 2026-05-06 18:32 | 42.22883 | -80.60198 | 28614 ft | 458 kts | 91° |
| 2026-05-06 18:32 | 42.22794 | -80.55921 | 28787 ft | 459 kts | 91° |
| 2026-05-06 18:33 | 42.22704 | -80.51634 | 28958 ft | 461 kts | 91° |
| 2026-05-06 18:33 | 42.22611 | -80.47330 | 29127 ft | 462 kts | 91° |
| 2026-05-06 18:33 | 42.22516 | -80.42982 | 29294 ft | 463 kts | 91° |
| 2026-05-06 18:33 | 42.22420 | -80.38644 | 29455 ft | 464 kts | 91° |
| 2026-05-06 18:34 | 42.22321 | -80.34285 | 29609 ft | 465 kts | 92° |
| 2026-05-06 18:34 | 42.22222 | -80.29957 | 29756 ft | 466 kts | 92° |
| 2026-05-06 18:34 | 42.22120 | -80.25569 | 29900 ft | 467 kts | 92° |
| 2026-05-06 18:34 | 42.22015 | -80.21172 | 30038 ft | 468 kts | 92° |
| 2026-05-06 18:35 | 42.21910 | -80.16823 | 30170 ft | 469 kts | 92° |
| 2026-05-06 18:35 | 42.21803 | -80.12445 | 30297 ft | 470 kts | 92° |
| 2026-05-06 18:35 | 42.21693 | -80.08012 | 30421 ft | 471 kts | 92° |
| 2026-05-06 18:35 | 42.21582 | -80.03613 | 30549 ft | 472 kts | 92° |
| 2026-05-06 18:36 | 42.21469 | -79.99210 | 30711 ft | 471 kts | 92° |
| 2026-05-06 18:36 | 42.21353 | -79.94785 | 30888 ft | 471 kts | 92° |
| 2026-05-06 18:36 | 42.21238 | -79.90421 | 31058 ft | 470 kts | 92° |
| 2026-05-06 18:36 | 42.21119 | -79.86002 | 31225 ft | 470 kts | 92° |
| 2026-05-06 18:37 | 42.20999 | -79.81607 | 31388 ft | 470 kts | 92° |
| 2026-05-06 18:37 | 42.20918 | -79.78659 | 31497 ft | 469 kts | 92° |
| 2026-05-06 18:37 | 42.20755 | -79.72816 | 31711 ft | 469 kts | 92° |
| 2026-05-06 18:37 | 42.20630 | -79.68430 | 31870 ft | 469 kts | 92° |
| 2026-05-06 18:38 | 42.20504 | -79.64057 | 32027 ft | 468 kts | 92° |
| 2026-05-06 18:38 | 42.20377 | -79.59705 | 32182 ft | 468 kts | 92° |
| 2026-05-06 18:38 | 42.20246 | -79.55299 | 32337 ft | 468 kts | 92° |
| 2026-05-06 18:38 | 42.20117 | -79.50985 | 32487 ft | 467 kts | 92° |
| 2026-05-06 18:39 | 42.19984 | -79.46607 | 32637 ft | 467 kts | 92° |
| 2026-05-06 18:39 | 42.19849 | -79.42210 | 32786 ft | 467 kts | 92° |
| 2026-05-06 18:39 | 42.19713 | -79.37846 | 32932 ft | 466 kts | 92° |
| 2026-05-06 18:40 | 42.19437 | -79.29138 | 33218 ft | 466 kts | 92° |
| 2026-05-06 18:40 | 42.19296 | -79.24783 | 33358 ft | 466 kts | 92° |
| 2026-05-06 18:40 | 42.19158 | -79.20478 | 33493 ft | 465 kts | 92° |
| 2026-05-06 18:40 | 42.19122 | -79.16096 | 33625 ft | 465 kts | 89° |
| 2026-05-06 18:41 | 42.19250 | -79.11768 | 33754 ft | 465 kts | 86° |
| 2026-05-06 18:41 | 42.19550 | -79.07427 | 33882 ft | 465 kts | 83° |
| 2026-05-06 18:41 | 42.20011 | -79.03174 | 34007 ft | 464 kts | 80° |
| 2026-05-06 18:41 | 42.20560 | -78.98851 | 34137 ft | 464 kts | 80° |
| 2026-05-06 18:42 | 42.21115 | -78.94564 | 34264 ft | 464 kts | 80° |
| 2026-05-06 18:42 | 42.21668 | -78.90286 | 34388 ft | 463 kts | 80° |
| 2026-05-06 18:42 | 42.22211 | -78.86059 | 34507 ft | 463 kts | 80° |
| 2026-05-06 18:42 | 42.22757 | -78.81774 | 34625 ft | 463 kts | 80° |
| 2026-05-06 18:43 | 42.23298 | -78.77512 | 34741 ft | 463 kts | 80° |
| 2026-05-06 18:43 | 42.23836 | -78.73251 | 34854 ft | 462 kts | 80° |
| 2026-05-06 18:43 | 42.24372 | -78.68980 | 34966 ft | 462 kts | 80° |
| 2026-05-06 18:44 | 42.25441 | -78.60438 | 34999 ft | 462 kts | 80° |
| 2026-05-06 18:44 | 42.26505 | -78.51876 | 35003 ft | 462 kts | 80° |
| 2026-05-06 18:45 | 42.27557 | -78.43349 | 35004 ft | 462 kts | 80° |
| 2026-05-06 18:45 | 42.28605 | -78.34808 | 35004 ft | 462 kts | 81° |
| 2026-05-06 18:46 | 42.29642 | -78.26273 | 35004 ft | 462 kts | 81° |
| 2026-05-06 18:46 | 42.30678 | -78.17703 | 35004 ft | 462 kts | 81° |
| 2026-05-06 18:47 | 42.31705 | -78.09164 | 35004 ft | 462 kts | 81° |
| 2026-05-06 18:47 | 42.32725 | -78.00631 | 35004 ft | 462 kts | 81° |
| 2026-05-06 18:48 | 42.33753 | -77.91969 | 35004 ft | 462 kts | 81° |
| 2026-05-06 18:48 | 42.34761 | -77.83408 | 35004 ft | 462 kts | 81° |
| 2026-05-06 18:49 | 42.35766 | -77.74850 | 35004 ft | 462 kts | 81° |
| 2026-05-06 18:49 | 42.36765 | -77.66278 | 35004 ft | 462 kts | 81° |
| 2026-05-06 18:50 | 42.37751 | -77.57752 | 35004 ft | 462 kts | 81° |
| 2026-05-06 18:50 | 42.38737 | -77.49159 | 35004 ft | 462 kts | 81° |
| 2026-05-06 18:51 | 42.39713 | -77.40590 | 35004 ft | 462 kts | 81° |
| 2026-05-06 18:51 | 42.40681 | -77.32027 | 35004 ft | 462 kts | 82° |
| 2026-05-06 18:52 | 42.41645 | -77.23424 | 35004 ft | 462 kts | 81° |
| 2026-05-06 18:52 | 42.42603 | -77.14832 | 35004 ft | 462 kts | 81° |
| 2026-05-06 18:53 | 42.43554 | -77.06241 | 35004 ft | 462 kts | 81° |
| 2026-05-06 18:53 | 42.44492 | -76.97709 | 35004 ft | 462 kts | 82° |
| 2026-05-06 18:54 | 42.45430 | -76.89094 | 35004 ft | 462 kts | 82° |
| 2026-05-06 18:54 | 42.46358 | -76.80486 | 35004 ft | 462 kts | 82° |
| 2026-05-06 18:55 | 42.47278 | -76.71932 | 35004 ft | 462 kts | 81° |
| 2026-05-06 18:55 | 42.48204 | -76.63310 | 35004 ft | 462 kts | 81° |
| 2026-05-06 18:56 | 42.49119 | -76.54725 | 35004 ft | 462 kts | 81° |
| 2026-05-06 18:56 | 42.50030 | -76.46108 | 35004 ft | 462 kts | 81° |
| 2026-05-06 18:57 | 42.50930 | -76.37527 | 35004 ft | 462 kts | 81° |
| 2026-05-06 18:57 | 42.51823 | -76.28919 | 35004 ft | 462 kts | 82° |
| 2026-05-06 18:58 | 42.52712 | -76.20263 | 35004 ft | 462 kts | 82° |
| 2026-05-06 18:58 | 42.53587 | -76.11682 | 35004 ft | 462 kts | 82° |
| 2026-05-06 18:59 | 42.54456 | -76.03100 | 35004 ft | 462 kts | 82° |
| 2026-05-06 18:59 | 42.55326 | -75.94452 | 35004 ft | 462 kts | 82° |
| 2026-05-06 19:00 | 42.56186 | -75.85846 | 35004 ft | 462 kts | 82° |
| 2026-05-06 19:00 | 42.57042 | -75.77190 | 35004 ft | 462 kts | 82° |
| 2026-05-06 19:01 | 42.57888 | -75.68569 | 35004 ft | 462 kts | 82° |
| 2026-05-06 19:01 | 42.58732 | -75.59937 | 35004 ft | 462 kts | 82° |
| 2026-05-06 19:02 | 42.59565 | -75.51341 | 35004 ft | 462 kts | 82° |
| 2026-05-06 19:02 | 42.60393 | -75.42733 | 35004 ft | 462 kts | 82° |
| 2026-05-06 19:03 | 42.61221 | -75.34067 | 35004 ft | 462 kts | 83° |
| 2026-05-06 19:03 | 42.62034 | -75.25446 | 35004 ft | 462 kts | 83° |
| 2026-05-06 19:04 | 42.62843 | -75.16811 | 35004 ft | 462 kts | 83° |
| 2026-05-06 19:04 | 42.63650 | -75.08132 | 35004 ft | 462 kts | 83° |
| 2026-05-06 19:05 | 42.64447 | -74.99503 | 35004 ft | 462 kts | 83° |
| 2026-05-06 19:05 | 42.65238 | -74.90866 | 35004 ft | 462 kts | 83° |
| 2026-05-06 19:06 | 42.66024 | -74.82214 | 35004 ft | 462 kts | 83° |
| 2026-05-06 19:06 | 42.66803 | -74.73565 | 35004 ft | 462 kts | 83° |
| 2026-05-06 19:07 | 42.67574 | -74.64922 | 35004 ft | 462 kts | 83° |
| 2026-05-06 19:07 | 42.68339 | -74.56278 | 35004 ft | 462 kts | 83° |
| 2026-05-06 19:08 | 42.69098 | -74.47625 | 35004 ft | 462 kts | 83° |
| 2026-05-06 19:08 | 42.69850 | -74.38975 | 35004 ft | 462 kts | 83° |
| 2026-05-06 19:09 | 42.70599 | -74.30273 | 35004 ft | 462 kts | 83° |
| 2026-05-06 19:09 | 42.71335 | -74.21632 | 35004 ft | 462 kts | 83° |
| 2026-05-06 19:10 | 42.72066 | -74.12992 | 35004 ft | 462 kts | 83° |
| 2026-05-06 19:10 | 42.72794 | -74.04321 | 35004 ft | 462 kts | 83° |
| 2026-05-06 19:11 | 42.73517 | -73.95628 | 35004 ft | 462 kts | 83° |
| 2026-05-06 19:11 | 42.74231 | -73.86948 | 35004 ft | 462 kts | 83° |
| 2026-05-06 19:12 | 42.74658 | -73.78222 | 35003 ft | 462 kts | 89° |
| 2026-05-06 19:12 | 42.74622 | -73.69550 | 35004 ft | 462 kts | 90° |
| 2026-05-06 19:13 | 42.74549 | -73.60810 | 35004 ft | 462 kts | 90° |
| 2026-05-06 19:13 | 42.74477 | -73.52071 | 34770 ft | 461 kts | 90° |
| 2026-05-06 19:13 | 42.74440 | -73.47757 | 34510 ft | 459 kts | 90° |
| 2026-05-06 19:14 | 42.74402 | -73.43418 | 34128 ft | 456 kts | 90° |
| 2026-05-06 19:14 | 42.74363 | -73.39146 | 33629 ft | 453 kts | 90° |
| 2026-05-06 19:14 | 42.74324 | -73.34888 | 33083 ft | 450 kts | 91° |
| 2026-05-06 19:14 | 42.74283 | -73.30672 | 32643 ft | 445 kts | 91° |
| 2026-05-06 19:15 | 42.74241 | -73.26471 | 32161 ft | 441 kts | 91° |
| 2026-05-06 19:15 | 42.74198 | -73.22334 | 31669 ft | 438 kts | 91° |
| 2026-05-06 19:15 | 42.74152 | -73.18231 | 31171 ft | 434 kts | 91° |
| 2026-05-06 19:15 | 42.74081 | -73.14178 | 30676 ft | 431 kts | 93° |
| 2026-05-06 19:16 | 42.73852 | -73.10104 | 30175 ft | 428 kts | 96° |
| 2026-05-06 19:16 | 42.73459 | -73.06121 | 29686 ft | 424 kts | 99° |
| 2026-05-06 19:16 | 42.73009 | -73.02186 | 29117 ft | 423 kts | 99° |
| 2026-05-06 19:16 | 42.72555 | -72.98302 | 28701 ft | 418 kts | 99° |
| 2026-05-06 19:17 | 42.72100 | -72.94410 | 28241 ft | 415 kts | 99° |
| 2026-05-06 19:17 | 42.71652 | -72.90568 | 27782 ft | 412 kts | 99° |
| 2026-05-06 19:17 | 42.71209 | -72.86754 | 27328 ft | 409 kts | 99° |
| 2026-05-06 19:17 | 42.70765 | -72.82926 | 26875 ft | 406 kts | 99° |
| 2026-05-06 19:18 | 42.70326 | -72.79167 | 26434 ft | 403 kts | 99° |
| 2026-05-06 19:18 | 42.69891 | -72.75468 | 26005 ft | 400 kts | 99° |
| 2026-05-06 19:18 | 42.69453 | -72.71752 | 25578 ft | 398 kts | 99° |
| 2026-05-06 19:18 | 42.69016 | -72.68052 | 25157 ft | 395 kts | 99° |
| 2026-05-06 19:19 | 42.68581 | -72.64385 | 24745 ft | 392 kts | 99° |
| 2026-05-06 19:19 | 42.68144 | -72.60727 | 24338 ft | 390 kts | 99° |
| 2026-05-06 19:19 | 42.67707 | -72.57125 | 23940 ft | 388 kts | 99° |
| 2026-05-06 19:19 | 42.67268 | -72.53513 | 23545 ft | 385 kts | 99° |
| 2026-05-06 19:20 | 42.66836 | -72.49963 | 23161 ft | 383 kts | 99° |
| 2026-05-06 19:20 | 42.66404 | -72.46411 | 22782 ft | 381 kts | 99° |
| 2026-05-06 19:20 | 42.65974 | -72.42895 | 22413 ft | 379 kts | 99° |
| 2026-05-06 19:20 | 42.65543 | -72.39384 | 22049 ft | 376 kts | 99° |
| 2026-05-06 19:21 | 42.65113 | -72.35894 | 21690 ft | 374 kts | 99° |
| 2026-05-06 19:21 | 42.64686 | -72.32430 | 21264 ft | 371 kts | 99° |
| 2026-05-06 19:21 | 42.64276 | -72.28992 | 20703 ft | 372 kts | 99° |
| 2026-05-06 19:21 | 42.63881 | -72.25555 | 20343 ft | 367 kts | 99° |
| 2026-05-06 19:22 | 42.63492 | -72.22160 | 19995 ft | 362 kts | 99° |
| 2026-05-06 19:22 | 42.63102 | -72.18794 | 19647 ft | 356 kts | 99° |
| 2026-05-06 19:22 | 42.62719 | -72.15507 | 19303 ft | 351 kts | 99° |
| 2026-05-06 19:22 | 42.62338 | -72.12260 | 18913 ft | 348 kts | 99° |
| 2026-05-06 19:23 | 42.61958 | -72.09023 | 18486 ft | 346 kts | 99° |
| 2026-05-06 19:23 | 42.61583 | -72.05844 | 18063 ft | 344 kts | 99° |
| 2026-05-06 19:23 | 42.61199 | -72.02626 | 17640 ft | 342 kts | 99° |
| 2026-05-06 19:23 | 42.60812 | -71.99489 | 17226 ft | 340 kts | 99° |
| 2026-05-06 19:24 | 42.60415 | -71.96300 | 16802 ft | 337 kts | 99° |
| 2026-05-06 19:24 | 42.60027 | -71.93194 | 16387 ft | 335 kts | 99° |
| 2026-05-06 19:24 | 42.59640 | -71.90083 | 15972 ft | 333 kts | 99° |
| 2026-05-06 19:24 | 42.59252 | -71.86977 | 15555 ft | 331 kts | 99° |
| 2026-05-06 19:25 | 42.58872 | -71.83932 | 15145 ft | 329 kts | 99° |
| 2026-05-06 19:25 | 42.58453 | -71.80882 | 14731 ft | 327 kts | 101° |
| 2026-05-06 19:25 | 42.57989 | -71.77898 | 14326 ft | 325 kts | 102° |
| 2026-05-06 19:25 | 42.57520 | -71.74924 | 13967 ft | 321 kts | 102° |
| 2026-05-06 19:26 | 42.57052 | -71.71973 | 13643 ft | 316 kts | 102° |
| 2026-05-06 19:26 | 42.56598 | -71.69106 | 13328 ft | 312 kts | 102° |
| 2026-05-06 19:26 | 42.56142 | -71.66243 | 13013 ft | 307 kts | 102° |
| 2026-05-06 19:26 | 42.55696 | -71.63440 | 12705 ft | 303 kts | 102° |
| 2026-05-06 19:27 | 42.55255 | -71.60674 | 12399 ft | 298 kts | 102° |
| 2026-05-06 19:27 | 42.54763 | -71.57958 | 12075 ft | 294 kts | 105° |
| 2026-05-06 19:27 | 42.54224 | -71.55325 | 11712 ft | 293 kts | 105° |
| 2026-05-06 19:27 | 42.53669 | -71.52646 | 11331 ft | 291 kts | 105° |
| 2026-05-06 19:28 | 42.53125 | -71.50028 | 10962 ft | 290 kts | 105° |
| 2026-05-06 19:28 | 42.52584 | -71.47421 | 10594 ft | 288 kts | 105° |
| 2026-05-06 19:28 | 42.52043 | -71.44824 | 10331 ft | 285 kts | 105° |
| 2026-05-06 19:28 | 42.51508 | -71.42251 | 10162 ft | 287 kts | 105° |
| 2026-05-06 19:29 | 42.50961 | -71.39627 | 9822 ft | 285 kts | 105° |
| 2026-05-06 19:29 | 42.50427 | -71.37064 | 9483 ft | 283 kts | 105° |
| 2026-05-06 19:29 | 42.49908 | -71.34517 | 9141 ft | 282 kts | 105° |
| 2026-05-06 19:29 | 42.49398 | -71.31942 | 8798 ft | 281 kts | 105° |
| 2026-05-06 19:30 | 42.48898 | -71.29411 | 8542 ft | 275 kts | 105° |
| 2026-05-06 19:30 | 42.48412 | -71.26962 | 8290 ft | 269 kts | 105° |
| 2026-05-06 19:30 | 42.47926 | -71.24513 | 8002 ft | 265 kts | 105° |
| 2026-05-06 19:30 | 42.47455 | -71.22136 | 7724 ft | 261 kts | 105° |
| 2026-05-06 19:31 | 42.46988 | -71.19799 | 7436 ft | 256 kts | 105° |
| 2026-05-06 19:31 | 42.46533 | -71.17469 | 7146 ft | 252 kts | 101° |
| 2026-05-06 19:31 | 42.47047 | -71.12951 | 6554 ft | 244 kts | 64° |
| 2026-05-06 19:32 | 42.47792 | -71.10937 | 6303 ft | 239 kts | 62° |
| 2026-05-06 19:32 | 42.48552 | -71.08951 | 6175 ft | 232 kts | 63° |
| 2026-05-06 19:32 | 42.49324 | -71.07053 | 6139 ft | 228 kts | 52° |
| 2026-05-06 19:32 | 42.50439 | -71.05704 | 6223 ft | 205 kts | 29° |
| 2026-05-06 19:33 | 42.51736 | -71.04952 | 6213 ft | 202 kts | 20° |
| 2026-05-06 19:33 | 42.53047 | -71.04335 | 6171 ft | 201 kts | 18° |
| 2026-05-06 19:33 | 42.54378 | -71.03721 | 6023 ft | 200 kts | 19° |
| 2026-05-06 19:33 | 42.55665 | -71.03113 | 5714 ft | 193 kts | 19° |
| 2026-05-06 19:34 | 42.56892 | -71.02522 | 5405 ft | 182 kts | 20° |
| 2026-05-06 19:34 | 42.57920 | -71.01676 | 5057 ft | 175 kts | 54° |
| 2026-05-06 19:34 | 42.58201 | -71.00108 | 4752 ft | 175 kts | 98° |
| 2026-05-06 19:34 | 42.57706 | -70.98641 | 4404 ft | 174 kts | 131° |
| 2026-05-06 19:35 | 42.56844 | -70.97482 | 4067 ft | 173 kts | 137° |
| 2026-05-06 19:35 | 42.55959 | -70.96370 | 3559 ft | 178 kts | 137° |
| 2026-05-06 19:35 | 42.55072 | -70.95228 | 3144 ft | 174 kts | 136° |
| 2026-05-06 19:35 | 42.54222 | -70.94107 | 2812 ft | 170 kts | 136° |
| 2026-05-06 19:36 | 42.53380 | -70.93037 | 2473 ft | 163 kts | 146° |
| 2026-05-06 19:36 | 42.52336 | -70.92766 | 2165 ft | 156 kts | 198° |
| 2026-05-06 19:36 | 42.51311 | -70.93304 | 2182 ft | 158 kts | 201° |
| 2026-05-06 19:36 | 42.50285 | -70.93836 | 2158 ft | 158 kts | 200° |
| 2026-05-06 19:37 | 42.49263 | -70.94347 | 2149 ft | 158 kts | 200° |
| 2026-05-06 19:37 | 42.48230 | -70.94855 | 2145 ft | 158 kts | 200° |
| 2026-05-06 19:37 | 42.47187 | -70.95364 | 2143 ft | 158 kts | 199° |
| 2026-05-06 19:37 | 42.46508 | -70.95686 | 2134 ft | 155 kts | 199° |
| 2026-05-06 19:38 | 42.45169 | -70.96310 | 1857 ft | 152 kts | 198° |
| 2026-05-06 19:38 | 42.44175 | -70.96770 | 1576 ft | 151 kts | 198° |
| 2026-05-06 19:38 | 42.43188 | -70.97242 | 1300 ft | 150 kts | 201° |
| 2026-05-06 19:38 | 42.42216 | -70.97731 | 1039 ft | 149 kts | 200° |
| 2026-05-06 19:39 | 42.41239 | -70.98211 | 827 ft | 149 kts | 199° |
| 2026-05-06 19:39 | 42.40272 | -70.98682 | 603 ft | 148 kts | 200° |
| 2026-05-06 19:39 | 42.39300 | -70.99147 | 430 ft | 148 kts | 199° |
| 2026-05-06 19:39 | 42.38336 | -70.99609 | 233 ft | 148 kts | 200° |
| 2026-05-06 19:40 | 42.37368 | -71.00088 | 48 ft | 147 kts | 199° |
| 2026-05-06 19:40 | 42.36505 | -71.00505 | 15 ft | 98 kts | 199° |
| 2026-05-06 19:40 | 42.36101 | -71.00703 | 15 ft | 36 kts | 200° |
| 2026-05-06 19:40 | 42.35953 | -71.00858 | 18 ft | 25 kts | 228° |
| 2026-05-06 19:41 | 42.35862 | -71.01002 | 18 ft | 15 kts | 231° |
| 2026-05-06 19:41 | 42.35833 | -71.01138 | 18 ft | 15 kts | 276° |
| 2026-05-06 19:41 | 42.35844 | -71.01253 | 20 ft | 6 kts | 277° |
| 2026-05-06 19:41 | 42.35844 | -71.01257 | 20 ft | 0 kts | 278° |
| 2026-05-06 19:43 | 42.35846 | -71.01269 | 20 ft | 3 kts | 279° |
| 2026-05-06 19:43 | 42.35855 | -71.01333 | 21 ft | 9 kts | 281° |
| 2026-05-06 19:43 | 42.35870 | -71.01458 | 21 ft | 16 kts | 278° |
| 2026-05-06 19:43 | 42.35892 | -71.01617 | 19 ft | 18 kts | 280° |
| 2026-05-06 19:44 | 42.35906 | -71.01733 | 18 ft | 8 kts | 279° |
| 2026-05-06 19:44 | 42.35915 | -71.01771 | 18 ft | 4 kts | 306° |
| 2026-05-06 19:44 | 42.35946 | -71.01784 | 18 ft | 5 kts | 7° |
| 2026-05-06 19:44 | 42.35973 | -71.01779 | 18 ft | 1 kts | 7° |
| 2026-05-06 19:45 | 42.35974 | -71.01779 | 18 ft | 0 kts | 7° |